Time;durP1;ratioP1;P1;durP2;ratioP2;P2;SDS_P1;SDS_P2;PMS_P1;PMS_P2;Temp;Humidity;BMP_temperature;BMP_pressure;BME280_temperature;BME280_humidity;BME280_pressure;Samples;Min_cycle;Max_cycle;Signal;HPM_P1;HPM_P2
2022/06/15 00:01:01;;;;;;;5.43;3.33;;;;;;;13.08;78.29;98360.53;4956901;28;20047;-66
2022/06/15 00:03:30;;;;;;;4.30;3.10;;;;;;;13.06;78.24;98356.56;4956976;28;20125;-66
2022/06/15 00:06:11;;;;;;;5.50;3.20;;;;;;;13.02;77.97;98358.22;4974590;28;20046;-66
2022/06/15 00:08:38;;;;;;;3.65;2.90;;;;;;;12.97;78.19;98351.06;4956560;28;20452;-65
2022/06/15 00:11:10;;;;;;;4.00;3.00;;;;;;;12.95;78.11;98353.22;4974272;28;20519;-67
2022/06/15 00:13:35;;;;;;;4.97;3.00;;;;;;;12.93;77.83;98353.47;4974223;28;20047;-68
2022/06/15 00:16:03;;;;;;;3.65;2.97;;;;;;;12.90;77.91;98358.56;4973428;28;20063;-66
2022/06/15 00:18:30;;;;;;;4.10;2.70;;;;;;;12.88;77.60;98355.38;4956778;28;20424;-65
2022/06/15 00:20:57;;;;;;;4.05;2.83;;;;;;;12.85;77.79;98354.09;4956543;28;20049;-66
2022/06/15 00:23:25;;;;;;;3.70;2.75;;;;;;;12.82;77.71;98365.25;4957171;28;20583;-65
2022/06/15 00:25:51;;;;;;;6.90;2.85;;;;;;;12.79;77.57;98352.50;4940969;28;20043;-66
2022/06/15 00:28:18;;;;;;;4.82;3.03;;;;;;;12.78;77.95;98358.91;4973970;28;20101;-66
2022/06/15 00:30:45;;;;;;;3.05;2.67;;;;;;;12.76;77.54;98355.72;4955944;28;20066;-67
2022/06/15 00:33:11;;;;;;;4.85;2.95;;;;;;;12.75;78.06;98348.03;4956270;28;20058;-66
2022/06/15 00:35:38;;;;;;;4.40;2.55;;;;;;;12.72;78.30;98355.50;4974114;28;20448;-67
2022/06/15 00:38:04;;;;;;;2.88;2.63;;;;;;;12.71;78.25;98351.25;4940172;28;20047;-65
2022/06/15 00:40:30;;;;;;;4.13;3.30;;;;;;;12.67;78.75;98360.84;4956731;28;20038;-66
2022/06/15 00:42:55;;;;;;;6.07;3.03;;;;;;;12.65;78.68;98362.22;4956310;28;20496;-65
2022/06/15 00:45:21;;;;;;;3.92;3.17;;;;;;;12.63;78.50;98361.69;4973730;28;20043;-66
2022/06/15 00:47:47;;;;;;;5.45;3.40;;;;;;;12.62;78.46;98363.53;4956399;28;20046;-66
2022/06/15 00:50:14;;;;;;;3.72;3.20;;;;;;;12.62;78.67;98365.41;4972977;28;20049;-65
2022/06/15 00:52:46;;;;;;;6.10;3.03;;;;;;;12.62;78.50;98352.13;4956176;28;20129;-66
2022/06/15 00:55:18;;;;;;;3.83;2.80;;;;;;;12.61;78.27;98351.31;4973950;28;20276;-65
2022/06/15 00:57:44;;;;;;;5.53;3.10;;;;;;;12.62;78.38;98357.44;4940193;28;20047;-65
2022/06/15 01:00:12;;;;;;;4.93;3.50;;;;;;;12.61;78.36;98356.63;4973298;28;20049;-65
2022/06/15 01:02:39;;;;;;;7.53;3.20;;;;;;;12.66;78.17;98361.91;4973168;28;20173;-66
2022/06/15 01:05:13;;;;;;;5.32;2.95;;;;;;;12.68;77.74;98348.34;4973793;28;20066;-66
2022/06/15 01:07:50;;;;;;;3.85;2.78;;;;;;;12.87;77.00;98357.25;4923725;28;20550;-65
2022/06/15 01:10:34;;;;;;;4.30;2.90;;;;;;;13.26;75.62;98363.63;4955666;28;20080;-66
2022/06/15 01:13:18;;;;;;;5.28;2.95;;;;;;;13.58;73.94;98365.72;4955821;28;20042;-66
2022/06/15 01:15:56;;;;;;;3.28;2.83;;;;;;;13.83;72.50;98362.00;4972663;28;20154;-67
2022/06/15 01:18:40;;;;;;;3.70;2.50;;;;;;;14.11;71.61;98365.66;4972441;28;20042;-65
2022/06/15 01:21:33;;;;;;;3.08;2.60;;;;;;;14.43;70.07;98354.31;4973460;28;20075;-65
2022/06/15 01:24:24;;;;;;;4.13;2.65;;;;;;;14.88;67.99;98353.97;4955205;28;20054;-66
2022/06/15 01:26:56;;;;;;;4.00;2.83;;;;;;;15.13;66.91;98358.13;4955627;28;20050;-66
2022/06/15 01:30:06;;;;;;;5.68;2.70;;;;;;;15.52;65.54;98357.72;4955453;28;20100;-66
2022/06/15 01:33:04;;;;;;;4.55;2.42;;;;;;;15.99;64.27;98352.34;4942449;28;20113;-64
2022/06/15 01:36:04;;;;;;;3.22;2.63;;;;;;;16.58;61.95;98351.34;4942803;28;20054;-66
2022/06/15 01:38:54;;;;;;;3.22;2.30;;;;;;;17.15;60.16;98347.41;4972830;28;20046;-65
2022/06/15 01:41:24;;;;;;;3.83;2.35;;;;;;;17.66;58.78;98357.59;4955470;28;20524;-66
2022/06/15 01:43:55;;;;;;;3.97;2.72;;;;;;;17.69;57.97;98356.19;4972695;28;20069;-66
2022/06/15 01:46:21;;;;;;;5.95;2.67;;;;;;;18.13;56.64;98354.47;4955246;28;20053;-66
2022/06/15 01:48:48;;;;;;;6.07;2.60;;;;;;;18.38;55.72;98358.28;4939077;28;20054;-65
2022/06/15 01:51:18;;;;;;;3.95;2.60;;;;;;;18.73;54.12;98356.44;4955371;28;20397;-67
2022/06/15 01:54:08;;;;;;;3.47;2.85;;;;;;;19.14;52.99;98357.06;4954897;28;20141;-67
2022/06/15 01:56:37;;;;;;;3.25;2.80;;;;;;;19.43;52.16;98359.81;4955630;28;20039;-65
2022/06/15 01:59:10;;;;;;;3.43;2.67;;;;;;;19.46;51.33;98353.81;4972315;28;20042;-66
2022/06/15 02:02:14;;;;;;;4.47;2.65;;;;;;;19.54;51.16;98359.50;4955033;28;20572;-66
2022/06/15 02:05:05;;;;;;;3.88;2.08;;;;;;;19.74;50.31;98351.53;4859338;29;20489;-65
2022/06/15 02:07:40;;;;;;;3.72;2.50;;;;;;;20.04;49.14;98354.25;4952135;28;20133;-65
2022/06/15 02:10:26;;;;;;;3.80;2.30;;;;;;;20.53;48.42;98351.09;4952771;28;20058;-66
2022/06/15 02:12:59;;;;;;;2.67;2.40;;;;;;;20.74;47.53;98348.44;4924936;28;20130;-67
2022/06/15 02:15:27;;;;;;;3.83;2.50;;;;;;;20.57;46.93;98355.50;4955135;28;20104;-65
2022/06/15 02:17:57;;;;;;;3.47;2.17;;;;;;;20.57;47.29;98350.13;4938676;28;20073;-65
2022/06/15 02:20:29;;;;;;;2.22;2.03;;;;;;;21.00;46.42;98353.56;4909031;28;20042;-66
2022/06/15 02:22:57;;;;;;;3.40;2.10;;;;;;;20.81;46.26;98348.66;4958995;28;20093;-66
2022/06/15 02:25:28;;;;;;;4.90;2.53;;;;;;;20.79;46.60;98349.00;4959012;28;20035;-65
2022/06/15 02:27:55;;;;;;;4.78;2.30;;;;;;;20.85;46.00;98346.88;4958004;28;20054;-66
2022/06/15 02:30:23;;;;;;;1.90;1.73;;;;;;;21.02;46.33;98340.56;4958977;28;20081;-67
2022/06/15 02:32:55;;;;;;;3.53;2.10;;;;;;;21.44;44.88;98346.66;4958500;28;20068;-66
2022/06/15 02:35:22;;;;;;;2.33;2.10;;;;;;;21.64;44.69;98349.59;4958954;28;20093;-66
2022/06/15 02:37:49;;;;;;;2.90;2.22;;;;;;;21.91;43.71;98348.16;4958439;28;20051;-67
2022/06/15 02:40:21;;;;;;;4.20;2.45;;;;;;;21.82;43.59;98347.47;4958875;28;20066;-66
2022/06/15 02:42:49;;;;;;;3.47;1.90;;;;;;;22.05;43.04;98350.50;4958066;28;20042;-67
2022/06/15 02:45:30;;;;;;;4.97;2.60;;;;;;;21.74;43.06;98346.47;4943155;28;20039;-66
2022/06/15 02:47:58;;;;;;;3.45;2.40;;;;;;;21.76;43.50;98352.31;4958160;28;20129;-66
2022/06/15 02:50:28;;;;;;;5.30;2.20;;;;;;;22.02;42.55;98351.97;4976134;28;20039;-65
2022/06/15 02:53:00;;;;;;;4.38;2.10;;;;;;;22.51;41.88;98357.34;4942297;28;20039;-67
2022/06/15 02:55:27;;;;;;;2.33;2.03;;;;;;;22.72;41.51;98356.38;4942696;28;20493;-66
2022/06/15 02:58:04;;;;;;;3.88;2.40;;;;;;;22.95;40.83;98356.69;4958182;28;20138;-66
2022/06/15 03:00:36;;;;;;;4.10;2.05;;;;;;;22.92;40.84;98358.13;4957861;28;20043;-67
2022/06/15 03:03:03;;;;;;;9.27;2.30;;;;;;;23.10;40.24;98345.91;4958009;28;20448;-66
2022/06/15 03:05:29;;;;;;;3.35;2.03;;;;;;;22.79;40.03;98346.53;4958471;28;20102;-66
2022/06/15 03:07:55;;;;;;;3.95;2.10;;;;;;;23.08;40.31;98355.47;4942116;28;20043;-66
2022/06/15 03:10:21;;;;;;;3.72;2.20;;;;;;;22.82;40.42;98356.66;4958130;28;20046;-66
2022/06/15 03:12:47;;;;;;;2.45;2.10;;;;;;;22.63;40.47;98367.31;4957411;28;20425;-67
2022/06/15 03:15:14;;;;;;;2.40;2.15;;;;;;;22.99;39.93;98358.31;4941948;28;20051;-66
2022/06/15 03:17:41;;;;;;;5.80;2.20;;;;;;;22.50;40.40;98355.78;4957800;28;20062;-64
2022/06/15 03:20:09;;;;;;;4.88;2.20;;;;;;;23.06;40.29;98368.53;4941710;28;20162;-66
2022/06/15 03:22:36;;;;;;;2.67;2.00;;;;;;;22.94;39.94;98368.56;4941558;28;20046;-65
2022/06/15 03:25:08;;;;;;;9.20;2.47;;;;;;;22.81;40.58;98365.13;4926754;28;20132;-66
2022/06/15 03:27:34;;;;;;;3.65;1.70;;;;;;;22.86;40.25;98370.31;4957617;28;20050;-66
2022/06/15 03:30:00;;;;;;;4.68;2.25;;;;;;;22.52;40.95;98366.22;4941312;28;20081;-67
2022/06/15 03:32:35;;;;;;;2.55;1.60;;;;;;;22.86;40.39;98362.97;4957445;28;20100;-66
2022/06/15 03:35:04;;;;;;;3.65;2.10;;;;;;;23.20;39.24;98368.16;4957730;28;20539;-67
2022/06/15 03:37:32;;;;;;;3.42;2.00;;;;;;;22.87;40.18;98371.88;4941665;28;20547;-67
2022/06/15 03:40:18;;;;;;;4.22;2.30;;;;;;;22.95;40.00;98381.78;4956922;28;20039;-66
2022/06/15 03:42:46;;;;;;;4.45;1.90;;;;;;;23.28;39.61;98370.69;4941748;28;20051;-66
2022/06/15 03:45:13;;;;;;;3.55;1.85;;;;;;;23.33;39.18;98372.38;4957218;28;20042;-65
2022/06/15 03:47:39;;;;;;;3.50;1.90;;;;;;;23.01;39.66;98377.69;4941715;28;20049;-66
2022/06/15 03:50:08;;;;;;;4.45;2.03;;;;;;;23.03;39.56;98372.75;4957349;28;20047;-65
2022/06/15 03:52:33;;;;;;;3.63;2.00;;;;;;;22.84;39.95;98373.31;4957143;28;20138;-66
2022/06/15 03:54:59;;;;;;;3.60;1.88;;;;;;;23.10;39.89;98364.03;4957100;28;20085;-66
2022/06/15 03:57:25;;;;;;;2.30;1.60;;;;;;;22.97;39.22;98368.72;4956745;28;20051;-66
2022/06/15 03:59:53;;;;;;;4.35;2.00;;;;;;;22.70;39.55;98375.63;4957321;28;20136;-66
2022/06/15 04:02:37;;;;;;;3.17;2.00;;;;;;;22.31;40.35;98375.25;4974085;28;20567;-66
2022/06/15 04:05:15;;;;;;;5.60;2.03;;;;;;;22.50;40.56;98371.16;4938069;29;20046;-66
2022/06/15 04:10:28;;;;;;;2.55;1.95;;;;;;;23.06;39.55;98377.47;4957756;28;20521;-66
2022/06/15 04:12:55;;;;;;;4.65;1.60;;;;;;;22.96;39.42;98385.25;4956868;28;20512;-66
2022/06/15 04:15:20;;;;;;;4.25;1.90;;;;;;;22.98;39.51;98386.50;4956621;28;20050;-66
2022/06/15 04:17:51;;;;;;;4.10;1.85;;;;;;;22.44;40.60;98376.81;4956603;28;20039;-67
2022/06/15 04:20:34;;;;;;;4.78;1.83;;;;;;;22.33;40.55;98385.72;4942191;28;20420;-67
2022/06/15 04:23:07;;;;;;;2.55;1.55;;;;;;;21.80;41.92;98382.91;4956460;28;20046;-67
2022/06/15 04:25:41;;;;;;;4.93;1.85;;;;;;;21.94;41.39;98387.94;4956482;28;20045;-66
2022/06/15 04:28:07;;;;;;;2.20;1.45;;;;;;;22.15;41.25;98377.84;4940373;28;20500;-66
2022/06/15 04:30:34;;;;;;;4.97;1.48;;;;;;;21.88;41.55;98381.19;4940518;28;20387;-66
2022/06/15 04:33:00;;;;;;;1.63;1.50;;;;;;;21.84;41.83;98375.69;4956590;28;20074;-65
2022/06/15 04:35:33;;;;;;;2.47;1.40;;;;;;;21.99;41.34;98385.03;4973796;28;20061;-65
2022/06/15 04:38:02;;;;;;;4.93;1.47;;;;;;;21.74;41.67;98378.84;4939945;28;20038;-66
2022/06/15 04:40:35;;;;;;;3.88;1.60;;;;;;;21.30;42.76;98371.19;4925990;28;20043;-66
2022/06/15 04:43:00;;;;;;;5.30;1.90;;;;;;;21.64;42.37;98387.34;4955155;28;20456;-68
2022/06/15 04:45:26;;;;;;;4.75;1.80;;;;;;;21.80;41.62;98379.41;4956140;28;20225;-67
2022/06/15 04:48:18;;;;;;;2.58;1.42;;;;;;;21.14;42.70;98375.63;4952508;28;20070;-66
2022/06/15 04:50:44;;;;;;;3.55;1.38;;;;;;;21.24;42.43;98385.22;4972613;28;20105;-67
2022/06/15 04:53:11;;;;;;;3.25;1.80;;;;;;;21.22;42.80;98390.16;4973549;28;20604;-67
2022/06/15 04:55:37;;;;;;;5.53;1.60;;;;;;;20.77;43.70;98388.16;4956023;28;20051;-67
2022/06/15 04:58:04;;;;;;;4.60;1.42;;;;;;;20.70;43.50;98387.88;4956235;28;20090;-66
2022/06/15 05:00:35;;;;;;;2.28;1.85;;;;;;;20.50;44.32;98392.09;4955831;28;20497;-66
2022/06/15 05:03:02;;;;;;;3.40;1.50;;;;;;;20.35;44.90;98388.91;4956263;28;20050;-66
2022/06/15 05:05:28;;;;;;;8.25;1.92;;;;;;;20.19;44.95;98387.88;4955840;28;20043;-66
2022/06/15 05:07:54;;;;;;;3.20;1.75;;;;;;;20.51;44.49;98391.78;4955804;28;20062;-65
2022/06/15 05:10:21;;;;;;;6.57;1.90;;;;;;;20.38;44.21;98396.31;4955333;28;20054;-66
2022/06/15 05:12:49;;;;;;;;;;;;;;;20.33;44.81;98404.56;4956256;28;20039;-67
2022/06/15 05:15:18;;;;;;;5.65;1.55;;;;;;;20.23;44.77;98404.94;4940344;28;19922;-67
2022/06/15 05:17:46;;;;;;;3.28;1.30;;;;;;;20.16;44.96;98404.66;4955795;28;20427;-67
2022/06/15 05:20:16;;;;;;;2.37;1.50;;;;;;;19.74;45.63;98396.47;4940445;28;20042;-68
2022/06/15 05:22:42;;;;;;;1.30;1.15;;;;;;;19.30;46.92;98401.13;4955207;28;20566;-67
2022/06/15 05:25:11;;;;;;;3.87;1.30;;;;;;;19.02;47.54;98400.66;4937018;29;20053;-66
2022/06/15 05:27:37;;;;;;;4.88;1.50;;;;;;;18.78;48.18;98403.81;4961972;28;20302;-67
2022/06/15 05:30:07;;;;;;;2.55;1.33;;;;;;;18.86;48.10;98400.38;4972335;28;20054;-66
2022/06/15 05:32:34;;;;;;;3.97;1.58;;;;;;;18.78;48.26;98399.25;4955288;28;20050;-66
2022/06/15 05:35:00;;;;;;;3.53;1.38;;;;;;;18.85;48.32;98393.41;4972978;28;20126;-66
2022/06/15 05:37:30;;;;;;;7.80;1.58;;;;;;;18.99;48.92;98396.72;4939176;28;20035;-67
2022/06/15 05:39:58;;;;;;;6.20;1.40;;;;;;;19.14;47.69;98400.03;4955258;28;20193;-68
2022/06/15 05:42:28;;;;;;;11.35;1.48;;;;;;;19.33;47.41;98399.69;4939021;28;20047;-67
2022/06/15 05:45:01;;;;;;;2.28;1.40;;;;;;;19.62;46.18;98407.84;4939657;28;20080;-66
2022/06/15 05:47:28;;;;;;;1.52;1.17;;;;;;;19.63;46.95;98398.66;4955424;28;20073;-67
2022/06/15 05:50:13;;;;;;;1.63;1.20;;;;;;;19.12;46.39;98386.94;4957557;28;20133;-68
2022/06/15 05:52:59;;;;;;;3.60;1.27;;;;;;;18.96;46.94;98407.31;4971453;28;20059;-65
2022/06/15 05:55:25;;;;;;;5.80;1.50;;;;;;;18.78;47.52;98409.19;4969837;28;20061;-64
2022/06/15 05:57:51;;;;;;;3.58;1.23;;;;;;;18.82;47.74;98400.22;4972553;28;20054;-65
2022/06/15 06:00:18;;;;;;;4.00;1.40;;;;;;;18.80;47.67;98404.31;4983612;28;20061;-65
2022/06/15 06:02:44;;;;;;;3.53;1.58;;;;;;;19.01;47.90;98409.84;4953368;28;20070;-65
2022/06/15 06:05:09;;;;;;;4.55;1.70;;;;;;;19.00;47.81;98405.56;4963638;28;20066;-66
2022/06/15 06:07:35;;;;;;;1.80;1.42;;;;;;;18.93;47.68;98413.31;4972711;28;20039;-67
2022/06/15 06:10:02;;;;;;;6.70;1.92;;;;;;;18.82;47.76;98410.13;4973417;28;20373;-65
2022/06/15 06:12:28;;;;;;;2.63;1.40;;;;;;;18.31;48.99;98406.25;4972609;28;20059;-67
2022/06/15 06:14:53;;;;;;;3.80;1.50;;;;;;;17.90;50.13;98396.66;4972340;28;20547;-66
2022/06/15 06:17:20;;;;;;;3.75;1.40;;;;;;;17.96;49.99;98397.31;4972415;28;20109;-67
2022/06/15 06:19:46;;;;;;;1.35;1.02;;;;;;;17.91;50.25;98401.72;4972515;28;20081;-66
2022/06/15 06:22:11;;;;;;;2.30;1.40;;;;;;;17.88;50.64;98396.16;4972269;28;20079;-66
2022/06/15 06:24:37;;;;;;;7.15;1.50;;;;;;;17.64;50.56;98393.81;4955137;28;20082;-66
2022/06/15 06:27:05;;;;;;;1.60;1.40;;;;;;;17.84;51.30;98400.56;4939422;28;20050;-67
2022/06/15 06:29:31;;;;;;;2.83;1.25;;;;;;;18.10;51.24;98398.78;4954733;28;20125;-67
2022/06/15 06:31:58;;;;;;;9.48;1.63;;;;;;;18.24;49.85;98408.63;4971925;28;20049;-67
2022/06/15 06:34:25;;;;;;;5.03;1.27;;;;;;;18.20;48.92;98411.09;4953885;28;20117;-65
2022/06/15 06:36:51;;;;;;;2.72;1.30;;;;;;;18.34;48.75;98413.69;4939143;28;20051;-65
2022/06/15 06:39:26;;;;;;;2.67;1.25;;;;;;;18.44;49.00;98410.69;4970781;28;20473;-65
2022/06/15 06:41:57;;;;;;;2.03;1.17;;;;;;;18.53;48.14;98410.69;4954828;28;20129;-65
2022/06/15 06:44:22;;;;;;;;;;;;;;;18.42;47.67;98410.22;4972128;28;20085;-67
2022/06/15 06:46:50;;;;;;;2.15;1.17;;;;;;;18.50;47.74;98420.19;4954624;28;19925;-66
2022/06/15 06:49:16;;;;;;;2.67;1.30;;;;;;;18.41;48.00;98402.47;4971175;28;20496;-66
2022/06/15 06:51:43;;;;;;;1.88;1.13;;;;;;;18.11;48.88;98411.06;4971628;28;20051;-66
2022/06/15 06:54:11;;;;;;;1.00;1.00;;;;;;;18.36;48.26;98409.59;4938753;28;20070;-66
2022/06/15 06:56:37;;;;;;;2.47;1.25;;;;;;;18.56;48.44;98410.06;4972087;28;20046;-67
2022/06/15 06:59:06;;;;;;;3.42;1.20;;;;;;;18.97;47.60;98415.06;4971186;28;20058;-67
2022/06/15 07:01:32;;;;;;;1.85;1.20;;;;;;;18.95;47.31;98417.25;4971655;28;20460;-66
2022/06/15 07:03:58;;;;;;;3.45;1.20;;;;;;;19.13;47.25;98409.19;4985407;28;20046;-67
2022/06/15 07:06:24;;;;;;;1.58;1.33;;;;;;;19.49;47.14;98416.88;4993061;28;20534;-67
2022/06/15 07:08:50;;;;;;;2.63;1.25;;;;;;;19.62;46.35;98423.16;4994754;28;20046;-66
2022/06/15 07:11:16;;;;;;;3.40;1.40;;;;;;;19.49;46.58;98419.56;4979629;28;20095;-68
2022/06/15 07:13:43;;;;;;;7.18;1.55;;;;;;;19.36;46.86;98425.94;4961369;28;20045;-66
2022/06/15 07:16:13;;;;;;;4.40;1.27;;;;;;;19.45;46.94;98424.03;4975185;28;20061;-66
2022/06/15 07:18:39;;;;;;;3.58;1.40;;;;;;;19.46;46.21;98423.69;4974825;28;20046;-67
2022/06/15 07:21:11;;;;;;;1.83;1.05;;;;;;;19.29;46.71;98426.41;4975086;28;20058;-68
2022/06/15 07:23:38;;;;;;;2.67;1.23;;;;;;;19.11;46.77;98408.72;4973974;28;20053;-65
2022/06/15 07:26:05;;;;;;;2.85;1.02;;;;;;;19.34;46.15;98414.72;4958186;28;20046;-65
2022/06/15 07:28:32;;;;;;;2.05;1.42;;;;;;;19.58;46.00;98417.66;4975249;28;20610;-67
2022/06/15 07:30:57;;;;;;;2.63;1.40;;;;;;;19.68;45.23;98420.03;4957409;28;20047;-67
2022/06/15 07:33:23;;;;;;;1.98;1.35;;;;;;;19.61;45.58;98421.59;4974689;28;20394;-66
2022/06/15 07:35:49;;;;;;;3.60;1.30;;;;;;;19.56;45.23;98419.06;4975167;28;20501;-68
2022/06/15 07:38:15;;;;;;;6.18;1.63;;;;;;;19.57;45.65;98421.47;4974016;28;20043;-68
2022/06/15 07:40:41;;;;;;;4.50;1.10;;;;;;;19.46;45.77;98429.06;4974486;28;20097;-68
2022/06/15 07:43:07;;;;;;;3.90;1.10;;;;;;;19.29;45.84;98432.59;4974963;28;20125;-69
2022/06/15 07:45:33;;;;;;;1.45;1.30;;;;;;;19.16;46.67;98427.38;4974414;28;20046;-68
2022/06/15 07:50:43;;;;;;;1.45;1.05;;;;;;;19.04;45.94;98417.25;4959015;28;20070;-68
2022/06/15 07:53:11;;;;;;;2.58;1.38;;;;;;;19.24;47.57;98430.06;4974659;28;20097;-70
2022/06/15 07:55:40;;;;;;;3.45;1.20;;;;;;;19.68;45.42;98438.06;4974320;28;20078;-66
2022/06/15 07:58:07;;;;;;;5.28;1.50;;;;;;;19.94;44.27;98432.59;4957450;28;20043;-69
2022/06/15 08:00:34;;;;;;;1.88;1.30;;;;;;;19.96;44.43;98435.75;4957400;28;20065;-64
2022/06/15 08:03:01;;;;;;;2.38;1.08;;;;;;;20.07;43.97;98431.59;4933026;29;20536;-66
2022/06/15 08:05:28;;;;;;;2.83;1.40;;;;;;;20.18;43.04;98432.03;4960565;28;20100;-66
2022/06/15 08:07:54;;;;;;;1.85;1.40;;;;;;;20.18;42.94;98443.59;4956273;28;20039;-67
2022/06/15 08:10:23;;;;;;;1.70;1.58;;;;;;;20.05;43.17;98447.28;4956559;28;20066;-68
2022/06/15 08:12:49;;;;;;;2.63;1.20;;;;;;;19.70;43.74;98451.97;4973856;28;20054;-67
2022/06/15 08:15:15;;;;;;;3.05;1.30;;;;;;;19.37;44.49;98447.09;4924476;28;20070;-66
2022/06/15 08:17:50;;;;;;;5.40;1.70;;;;;;;19.19;45.73;98453.59;4937873;28;20468;-65
2022/06/15 08:20:22;;;;;;;2.47;1.50;;;;;;;19.26;45.30;98451.22;4924788;28;20086;-67
2022/06/15 08:22:52;;;;;;;3.30;1.45;;;;;;;19.05;45.66;98459.13;4956645;28;20043;-67
2022/06/15 08:25:24;;;;;;;2.45;1.55;;;;;;;18.81;46.91;98475.69;4973724;28;20071;-66
2022/06/15 08:27:50;;;;;;;1.55;1.20;;;;;;;18.82;47.10;98464.66;4940117;28;20089;-68
2022/06/15 08:30:18;;;;;;;3.25;1.40;;;;;;;18.82;47.12;98466.53;4974049;28;20125;-66
2022/06/15 08:32:44;;;;;;;5.45;1.50;;;;;;;18.92;46.60;98468.13;4955851;28;20074;-66
2022/06/15 08:35:11;;;;;;;6.47;4.78;;;;;;;19.02;46.81;98467.81;4973510;28;20043;-66
2022/06/15 08:37:37;;;;;;;3.65;1.65;;;;;;;19.18;46.42;98462.78;4973180;28;20064;-67
2022/06/15 08:40:04;;;;;;;2.58;1.60;;;;;;;19.49;45.37;98459.88;4973459;28;20550;-66
2022/06/15 08:42:53;;;;;;;1.73;1.30;;;;;;;19.82;45.53;98464.75;4973216;28;20054;-66
2022/06/15 08:45:26;;;;;;;6.43;1.65;;;;;;;20.02;44.94;98461.38;4965588;28;20043;-64
2022/06/15 08:48:10;;;;;;;2.67;1.30;;;;;;;20.04;44.24;98455.69;4956532;28;20074;-66
2022/06/15 08:50:47;;;;;;;4.22;1.40;;;;;;;20.10;44.42;98455.16;4972984;28;20057;-66
2022/06/15 08:53:16;;;;;;;1.55;1.38;;;;;;;19.59;44.89;98462.25;4973261;28;20055;-66
2022/06/15 08:55:50;;;;;;;1.35;1.20;;;;;;;19.33;46.12;98469.56;4956222;28;20074;-68
2022/06/15 08:58:21;;;;;;;4.35;1.20;;;;;;;19.52;45.21;98461.94;4955466;28;20070;-66
2022/06/15 09:00:49;;;;;;;4.03;1.48;;;;;;;19.73;45.20;98460.19;4955524;28;20070;-67
2022/06/15 09:03:35;;;;;;;3.92;1.67;;;;;;;19.96;44.05;98468.03;4953178;28;20042;-63
2022/06/15 09:06:21;;;;;;;5.22;2.00;;;;;;;19.99;45.02;98466.59;4953316;28;20041;-69
2022/06/15 09:09:09;;;;;;;1.88;1.40;;;;;;;19.84;46.24;98475.97;4939648;28;20174;-66
2022/06/15 09:11:45;;;;;;;1.70;1.30;;;;;;;19.65;45.80;98466.38;4955866;28;20369;-67
2022/06/15 09:14:31;;;;;;;4.85;1.60;;;;;;;19.64;46.86;98474.72;4926379;28;20129;-67
2022/06/15 09:17:14;;;;;;;6.97;3.80;;;;;;;19.88;46.81;98468.84;4973072;28;20084;-67
2022/06/15 09:19:48;;;;;;;1.83;1.50;;;;;;;19.88;45.19;98455.41;4956037;28;20073;-67
2022/06/15 09:22:29;;;;;;;4.03;1.23;;;;;;;19.71;45.76;98473.16;4973088;28;20501;-67
2022/06/15 09:25:27;;;;;;;4.70;1.67;;;;;;;19.56;45.97;98478.22;4972963;28;20042;-67
2022/06/15 09:27:56;;;;;;;3.50;1.42;;;;;;;19.32;45.97;98474.13;4967519;28;20057;-68
2022/06/15 09:30:28;;;;;;;3.28;1.40;;;;;;;19.21;45.98;98479.03;4955368;28;20046;-67
2022/06/15 09:33:03;;;;;;;8.85;1.90;;;;;;;19.35;46.15;98468.13;4973060;28;20043;-68
2022/06/15 09:35:34;;;;;;;1.90;1.20;;;;;;;19.31;46.06;98482.53;4973225;28;20042;-67
2022/06/15 09:38:03;;;;;;;3.65;1.35;;;;;;;19.22;46.04;98482.53;4955361;28;20141;-67
2022/06/15 09:40:37;;;;;;;3.67;1.40;;;;;;;19.14;46.36;98481.41;4973221;28;20049;-66
2022/06/15 09:43:26;;;;;;;2.25;1.38;;;;;;;19.39;45.66;98479.81;4940095;28;20074;-67
2022/06/15 09:46:04;;;;;;;3.05;1.38;;;;;;;19.80;44.45;98486.59;4962469;28;20440;-67
2022/06/15 09:48:50;;;;;;;1.65;1.10;;;;;;;20.09;44.03;98493.13;4972662;28;20042;-67
2022/06/15 09:51:34;;;;;;;2.03;1.23;;;;;;;20.25;43.41;98483.44;4932846;28;20607;-68
2022/06/15 09:54:32;;;;;;;3.92;1.40;;;;;;;20.43;43.26;98492.22;4972469;28;20494;-66
2022/06/15 09:56:58;;;;;;;2.03;1.25;;;;;;;20.75;42.76;98481.94;4972459;28;20078;-68
2022/06/15 09:59:25;;;;;;;1.50;1.33;;;;;;;20.92;42.52;98489.94;4955036;28;20500;-66
2022/06/15 10:01:51;;;;;;;1.95;1.50;;;;;;;21.11;41.62;98492.16;4972310;28;20129;-67
2022/06/15 10:04:27;;;;;;;4.53;1.40;;;;;;;21.17;42.01;98479.28;4954746;28;20134;-67
2022/06/15 10:06:59;;;;;;;9.85;1.55;;;;;;;21.05;42.45;98471.91;4972245;28;20046;-67
2022/06/15 10:09:29;;;;;;;3.45;1.30;;;;;;;21.04;43.07;98492.69;4954675;28;20043;-68
2022/06/15 10:14:49;;;;;;;6.35;1.50;;;;;;;21.22;42.58;98487.16;4972339;28;20408;-67
2022/06/15 10:17:40;;;;;;;7.93;1.65;;;;;;;21.38;41.49;98493.53;4939296;28;20063;-68
2022/06/15 10:20:06;;;;;;;12.70;1.85;;;;;;;21.32;41.18;98486.75;4955208;28;20042;-67
2022/06/15 10:22:37;;;;;;;6.53;1.85;;;;;;;21.35;41.20;98490.69;4972171;28;20046;-66
2022/06/15 10:25:04;;;;;;;1.30;1.20;;;;;;;21.32;40.97;98484.88;4972801;28;20049;-67
2022/06/15 10:27:32;;;;;;;4.82;1.38;;;;;;;21.12;41.40;98493.75;4972467;28;20078;-68
2022/06/15 10:30:07;;;;;;;6.35;1.25;;;;;;;21.18;42.05;98494.31;4954851;28;20516;-66
2022/06/15 10:32:34;;;;;;;2.60;1.25;;;;;;;21.17;41.78;98476.56;4972520;28;20093;-66
2022/06/15 10:35:03;;;;;;;4.20;1.60;;;;;;;21.18;41.07;98480.84;4972678;28;20043;-66
2022/06/15 10:37:35;;;;;;;5.93;1.65;;;;;;;20.94;42.24;98495.78;4972203;28;20055;-67
2022/06/15 10:40:17;;;;;;;1.92;1.50;;;;;;;20.95;42.70;98486.56;4954988;28;20131;-66
2022/06/15 10:42:47;;;;;;;4.88;1.30;;;;;;;20.72;42.42;98498.75;4976217;28;20046;-67
2022/06/15 10:45:18;;;;;;;8.43;1.48;;;;;;;20.66;42.98;98500.84;4959033;28;20046;-67
2022/06/15 10:48:06;;;;;;;2.42;1.55;;;;;;;20.24;43.40;98505.31;4976021;28;20084;-67
2022/06/15 10:50:58;;;;;;;3.00;1.50;;;;;;;20.12;44.13;98506.75;4976182;28;20054;-67
2022/06/15 10:53:44;;;;;;;3.72;1.40;;;;;;;20.02;44.43;98511.69;4958489;28;20050;-68
2022/06/15 11:02:20;;;;;;;6.47;1.70;;;;;;;19.36;45.48;98526.16;4975553;28;20058;-67
2022/06/15 11:04:46;;;;;;;5.15;1.70;;;;;;;19.38;45.38;98531.19;4958273;28;20047;-66
2022/06/15 11:07:21;;;;;;;1.38;1.25;;;;;;;19.68;44.93;98537.56;4975768;28;20457;-67
2022/06/15 11:09:53;;;;;;;4.85;1.42;;;;;;;19.95;44.67;98520.25;4975779;28;20050;-67
2022/06/15 11:12:42;;;;;;;2.63;2.00;;;;;;;19.83;44.89;98520.91;4975312;28;20580;-67
2022/06/15 11:15:14;;;;;;;3.17;1.58;;;;;;;19.63;44.96;98516.16;4937011;28;20093;-68
2022/06/15 11:18:05;;;;;;;1.52;1.40;;;;;;;19.26;45.29;98516.47;4941932;28;20133;-66
2022/06/15 11:21:02;;;;;;;5.45;1.70;;;;;;;19.15;45.79;98520.59;4975046;28;20055;-67
2022/06/15 11:23:54;;;;;;;5.05;1.85;;;;;;;19.04;46.28;98530.84;4975174;28;20057;-67
2022/06/15 11:29:42;;;;;;;2.35;1.55;;;;;;;19.04;46.60;98535.44;4960584;28;20046;-66
2022/06/15 11:32:33;;;;;;;1.85;1.50;;;;;;;19.19;46.63;98534.19;4975406;28;20046;-67
2022/06/15 11:35:11;;;;;;;5.38;1.67;;;;;;;19.41;45.92;98534.06;4975201;28;20512;-66
2022/06/15 11:37:55;;;;;;;4.75;1.70;;;;;;;19.62;46.48;98536.06;4975122;28;20053;-66
2022/06/15 11:40:30;;;;;;;4.82;1.70;;;;;;;19.85;45.97;98536.72;4957955;28;20046;-67
2022/06/15 11:42:56;;;;;;;4.50;1.60;;;;;;;20.13;45.39;98537.94;4975188;28;20047;-67
2022/06/15 11:45:29;;;;;;;5.55;1.77;;;;;;;20.11;45.56;98534.75;4957602;28;20050;-67
2022/06/15 11:48:37;;;;;;;2.47;1.83;;;;;;;20.04;45.76;98533.69;4957921;28;20038;-66
2022/06/15 11:51:05;;;;;;;2.75;1.80;;;;;;;20.30;44.48;98539.78;4938520;28;20501;-68
2022/06/15 11:53:46;;;;;;;7.05;2.15;;;;;;;20.62;44.38;98538.41;4974423;28;20402;-67
2022/06/15 11:56:17;;;;;;;2.95;1.60;;;;;;;20.96;43.55;98539.31;4957430;28;20035;-67
2022/06/15 11:59:05;;;;;;;3.30;1.65;;;;;;;21.24;43.67;98536.94;4957401;28;20540;-67
2022/06/15 12:01:48;;;;;;;5.65;1.85;;;;;;;21.30;42.99;98524.03;4957387;28;20509;-67
2022/06/15 12:04:30;;;;;;;9.05;2.67;;;;;;;21.09;43.00;98532.91;4974747;28;20050;-67
2022/06/15 12:07:03;;;;;;;9.30;2.78;;;;;;;20.92;43.58;98526.84;4974799;28;20046;-66
2022/06/15 12:09:29;;;;;;;5.50;1.80;;;;;;;20.70;43.82;98531.38;4974759;28;20073;-66
2022/06/15 12:15:03;;;;;;;4.70;1.70;;;;;;;20.30;44.70;98539.78;4974670;28;20517;-66
2022/06/15 12:17:34;;;;;;;6.95;1.80;;;;;;;20.09;44.80;98537.00;4956668;28;20163;-66